createdAt,value
2022-12-11T00:00:38.278Z,37.13
2022-12-11T00:01:41.132Z,38.58
2022-12-11T00:02:44.461Z,37.30
2022-12-11T00:03:47.966Z,32.88
2022-12-11T00:04:50.799Z,28.52
2022-12-11T00:05:52.678Z,33.35
2022-12-11T00:06:55.533Z,39.90
2022-12-11T00:07:58.110Z,38.33
2022-12-11T00:09:01.023Z,36.28
2022-12-11T00:10:03.404Z,32.60
2022-12-11T00:11:06.765Z,34.92
2022-12-11T00:12:08.729Z,31.13
2022-12-11T00:13:11.586Z,31.58
2022-12-11T00:14:14.116Z,30.38
2022-12-11T00:15:17.286Z,30.80
2022-12-11T00:16:23.730Z,31.58
2022-12-11T00:17:29.445Z,28.98
2022-12-11T00:18:32.659Z,41.15
2022-12-11T00:19:35.553Z,37.53
2022-12-11T00:20:38.096Z,34.97
2022-12-11T00:21:40.918Z,29.00
2022-12-11T00:22:42.729Z,28.42
2022-12-11T00:23:45.775Z,27.27
2022-12-11T00:24:47.604Z,30.00
2022-12-11T00:25:50.415Z,30.73
2022-12-11T00:26:52.535Z,29.30
2022-12-11T00:27:55.644Z,32.13
2022-12-11T00:28:57.615Z,29.77
2022-12-11T00:30:00.559Z,28.02
2022-12-11T00:31:04.811Z,27.77
2022-12-11T00:32:07.972Z,26.85
2022-12-11T00:33:10.577Z,27.95
2022-12-11T00:34:15.000Z,27.42
2022-12-11T00:35:17.056Z,25.75
2022-12-11T00:36:21.550Z,27.35
2022-12-11T00:37:24.612Z,28.80
2022-12-11T00:38:26.483Z,26.20
2022-12-11T00:39:29.284Z,29.30
2022-12-11T00:40:33.656Z,26.30
2022-12-11T00:41:36.385Z,24.58
2022-12-11T00:42:38.181Z,25.00
2022-12-11T00:43:40.974Z,28.52
2022-12-11T00:44:42.782Z,30.00
2022-12-11T00:45:46.967Z,25.45
2022-12-11T00:46:49.734Z,30.70
2022-12-11T00:47:51.518Z,30.38
2022-12-11T00:48:54.375Z,29.05
2022-12-11T00:49:58.547Z,31.35
2022-12-11T00:51:02.032Z,27.48
2022-12-11T00:52:04.866Z,28.25
2022-12-11T00:53:07.378Z,29.70
2022-12-11T00:54:10.135Z,28.42
2022-12-11T00:55:12.169Z,26.85
2022-12-11T00:56:17.097Z,28.83
2022-12-11T00:57:19.914Z,28.30
2022-12-11T00:58:21.955Z,26.75
2022-12-11T00:59:24.720Z,30.00
2022-12-11T01:00:26.831Z,34.10
2022-12-11T01:01:29.611Z,29.48
2022-12-11T01:02:31.550Z,26.50
2022-12-11T01:03:34.470Z,29.95
2022-12-11T01:04:36.546Z,31.05
2022-12-11T01:05:40.647Z,27.50
2022-12-11T01:06:42.534Z,25.48
2022-12-11T01:07:45.350Z,25.75
2022-12-11T01:08:48.905Z,29.02
2022-12-11T01:10:09.524Z,28.25
2022-12-11T01:11:12.715Z,27.73
2022-12-11T01:12:17.757Z,29.85
2022-12-11T01:13:19.721Z,33.05
2022-12-11T01:14:22.537Z,28.52
2022-12-11T01:15:26.212Z,33.72
2022-12-11T01:16:29.130Z,33.33
2022-12-11T01:17:30.946Z,31.60
2022-12-11T01:18:33.666Z,33.33
2022-12-11T01:19:35.501Z,33.88
2022-12-11T01:20:41.369Z,31.65
2022-12-11T01:21:43.161Z,32.78
2022-12-11T01:22:45.957Z,34.10
2022-12-11T01:23:50.090Z,35.47
2022-12-11T01:24:52.823Z,33.30
2022-12-11T01:26:17.575Z,31.88
2022-12-11T01:27:19.406Z,28.80
2022-12-11T01:28:22.266Z,33.45
2022-12-11T01:29:25.043Z,30.63
2022-12-11T01:30:26.909Z,30.13
2022-12-11T01:31:31.096Z,31.20
2022-12-11T01:32:33.205Z,27.58
2022-12-11T01:33:35.981Z,23.38
2022-12-11T01:34:37.806Z,26.38
2022-12-11T01:35:42.202Z,25.85
2022-12-11T01:36:44.035Z,25.05
2022-12-11T01:37:46.821Z,25.80
2022-12-11T01:38:49.324Z,27.73
2022-12-11T01:39:52.260Z,28.17
2022-12-11T01:40:54.020Z,23.52
2022-12-11T01:41:57.908Z,24.10
2022-12-11T01:42:59.799Z,22.70
2022-12-11T01:44:05.950Z,27.25
2022-12-11T01:45:27.561Z,29.00
2022-12-11T01:46:31.746Z,31.05
2022-12-11T01:47:33.559Z,26.17
2022-12-11T01:48:40.778Z,28.63
2022-12-11T01:49:44.060Z,25.98
2022-12-11T01:50:50.491Z,27.65
2022-12-11T01:51:55.123Z,27.85
2022-12-11T01:52:58.065Z,24.70
2022-12-11T01:54:03.316Z,27.98
2022-12-11T01:55:06.235Z,27.40
2022-12-11T01:56:09.518Z,22.88
2022-12-11T01:57:11.875Z,23.20
2022-12-11T01:58:14.786Z,24.35
2022-12-11T01:59:20.255Z,26.10
2022-12-11T02:00:23.204Z,25.52
2022-12-11T02:01:29.807Z,25.58
2022-12-11T02:02:33.827Z,23.85
2022-12-11T02:03:35.723Z,23.45
2022-12-11T02:04:40.181Z,23.70
2022-12-11T02:05:42.025Z,23.55
2022-12-11T02:06:48.084Z,25.20
2022-12-11T02:07:53.076Z,24.48
2022-12-11T02:08:56.039Z,25.67
2022-12-11T02:09:57.855Z,22.33
2022-12-11T02:11:07.592Z,23.55
2022-12-11T02:12:15.469Z,20.45
2022-12-11T02:13:22.857Z,23.50
2022-12-11T02:14:29.354Z,22.92
2022-12-11T02:15:35.736Z,26.63
2022-12-11T02:16:44.956Z,23.85
2022-12-11T02:17:50.062Z,20.80
2022-12-11T02:18:55.854Z,24.08
2022-12-11T02:20:05.486Z,18.35
2022-12-11T02:21:10.206Z,19.80
2022-12-11T02:22:23.658Z,22.67
2022-12-11T02:23:39.255Z,22.50
2022-12-11T02:24:51.324Z,21.50
2022-12-11T02:26:00.850Z,20.42
2022-12-11T02:27:14.690Z,21.55
2022-12-11T02:28:23.498Z,18.67
2022-12-11T02:29:29.583Z,18.77
2022-12-11T02:30:32.763Z,19.15
2022-12-11T02:31:36.627Z,17.50
2022-12-11T02:32:43.505Z,17.20
2022-12-11T02:33:50.513Z,17.65
2022-12-11T02:34:57.239Z,20.17
2022-12-11T02:35:59.410Z,16.27
2022-12-11T02:37:05.408Z,19.05
2022-12-11T02:38:12.423Z,17.98
2022-12-11T02:39:16.685Z,19.50
2022-12-11T02:40:23.964Z,18.13
2022-12-11T02:41:27.442Z,16.83
2022-12-11T02:42:32.455Z,18.65
2022-12-11T02:43:36.964Z,17.48
2022-12-11T02:44:41.147Z,19.55
2022-12-11T02:45:44.317Z,21.30
2022-12-11T02:46:47.533Z,21.90
2022-12-11T02:47:49.589Z,21.23
2022-12-11T02:48:52.887Z,19.95
2022-12-11T02:49:56.154Z,22.52
2022-12-11T02:50:59.885Z,22.30
2022-12-11T02:52:02.992Z,22.73
2022-12-11T02:53:07.631Z,18.48
2022-12-11T02:54:13.837Z,21.88
2022-12-11T02:55:17.901Z,23.23
2022-12-11T02:56:22.779Z,18.60
2022-12-11T02:57:28.991Z,24.20
2022-12-11T02:58:31.793Z,20.05
2022-12-11T02:59:38.431Z,18.45
2022-12-11T03:00:41.212Z,21.15
2022-12-11T03:01:43.433Z,19.65
2022-12-11T03:02:46.755Z,19.33
2022-12-11T03:03:48.718Z,19.65
2022-12-11T03:04:51.549Z,19.38
2022-12-11T03:05:54.177Z,16.85
2022-12-11T03:07:01.481Z,20.48
2022-12-11T03:08:03.708Z,19.52
2022-12-11T03:09:06.997Z,19.58
2022-12-11T03:10:12.170Z,19.48
2022-12-11T03:11:15.013Z,18.83
2022-12-11T03:12:20.017Z,21.33
2022-12-11T03:13:25.349Z,16.85
2022-12-11T03:14:28.332Z,20.55
2022-12-11T03:15:36.133Z,20.83
2022-12-11T03:16:39.103Z,18.40
2022-12-11T03:17:48.522Z,16.90
2022-12-11T03:18:54.945Z,17.25
2022-12-11T03:20:05.713Z,16.30
2022-12-11T03:21:10.443Z,19.27
2022-12-11T03:22:17.781Z,18.52
2022-12-11T03:23:24.735Z,19.52
2022-12-11T03:24:30.876Z,17.45
2022-12-11T03:25:35.947Z,17.17
2022-12-11T03:26:41.005Z,17.75
2022-12-11T03:27:45.591Z,16.63
2022-12-11T03:28:51.757Z,19.13
2022-12-11T03:29:56.149Z,21.25
2022-12-11T03:31:05.385Z,20.27
2022-12-11T03:32:09.335Z,19.27
2022-12-11T03:33:15.529Z,23.17
2022-12-11T03:34:21.425Z,21.80
2022-12-11T03:35:25.476Z,26.15
2022-12-11T03:36:32.030Z,29.60
2022-12-11T03:37:36.772Z,24.30
2022-12-11T03:38:42.661Z,24.65
2022-12-11T03:39:48.228Z,23.88
2022-12-11T03:40:53.435Z,20.67
2022-12-11T03:41:55.918Z,23.55
2022-12-11T03:42:58.982Z,24.88
2022-12-11T03:44:01.150Z,21.85
2022-12-11T03:45:05.852Z,25.02
2022-12-11T03:46:10.198Z,25.00
2022-12-11T03:47:16.983Z,29.40
2022-12-11T03:48:19.119Z,27.13
2022-12-11T03:49:23.937Z,23.70
2022-12-11T03:50:28.945Z,25.75
2022-12-11T03:51:33.518Z,24.55
2022-12-11T03:52:38.569Z,24.83
2022-12-11T03:53:45.924Z,21.73
2022-12-11T03:54:49.847Z,29.40
2022-12-11T03:55:52.791Z,23.85
2022-12-11T03:56:56.621Z,28.23
2022-12-11T03:57:59.367Z,28.27
2022-12-11T03:59:01.121Z,27.85
2022-12-11T04:00:04.993Z,23.65
2022-12-11T04:01:15.022Z,24.73
2022-12-11T04:02:17.945Z,21.77
2022-12-11T04:03:19.947Z,26.90
2022-12-11T04:04:22.786Z,22.42
2022-12-11T04:05:24.550Z,20.05
2022-12-11T04:06:27.282Z,23.67
2022-12-11T04:07:29.101Z,24.35
2022-12-11T04:08:31.948Z,22.45
2022-12-11T04:09:33.893Z,22.20
2022-12-11T04:10:36.770Z,26.45
2022-12-11T04:11:39.516Z,20.70
2022-12-11T04:12:42.282Z,24.48
2022-12-11T04:13:44.116Z,24.73
2022-12-11T04:15:04.249Z,22.88
2022-12-11T04:16:07.853Z,20.25
2022-12-11T04:17:11.010Z,23.35
2022-12-11T04:18:31.205Z,22.42
2022-12-11T04:19:51.425Z,25.38
2022-12-11T04:21:12.141Z,21.55
2022-12-11T04:22:35.957Z,22.05
2022-12-11T04:23:56.588Z,19.75
2022-12-11T04:24:59.303Z,20.88
2022-12-11T04:26:04.776Z,23.45
2022-12-11T04:27:07.682Z,24.48
2022-12-11T04:28:09.489Z,22.30
2022-12-11T04:29:12.458Z,22.77
2022-12-11T04:30:16.678Z,23.33
2022-12-11T04:31:22.347Z,21.98
2022-12-11T04:32:25.578Z,23.60
2022-12-11T04:33:28.630Z,22.95
2022-12-11T04:34:30.489Z,22.13
2022-12-11T04:35:33.285Z,22.42
2022-12-11T04:36:35.750Z,20.58
2022-12-11T04:37:38.929Z,22.92
2022-12-11T04:38:40.742Z,21.90
2022-12-11T04:39:43.448Z,22.75
2022-12-11T04:40:45.235Z,24.45
2022-12-11T04:41:47.969Z,20.70
2022-12-11T04:42:49.775Z,21.38
2022-12-11T04:43:52.543Z,24.52
2022-12-11T04:44:54.268Z,21.25
2022-12-11T04:46:04.354Z,24.63
2022-12-11T04:47:06.320Z,22.67
2022-12-11T04:48:10.397Z,21.45
2022-12-11T04:49:12.586Z,21.83
2022-12-11T04:50:16.674Z,22.80
2022-12-11T04:51:18.807Z,23.23
2022-12-11T04:52:21.574Z,23.95
2022-12-11T04:53:23.424Z,23.75
2022-12-11T04:54:26.331Z,26.70
2022-12-11T04:55:28.104Z,23.02
2022-12-11T04:56:30.911Z,21.73
2022-12-11T04:57:32.706Z,23.15
2022-12-11T04:58:36.744Z,23.85
2022-12-11T04:59:38.802Z,24.50
2022-12-11T05:00:42.100Z,23.73
2022-12-11T05:01:43.947Z,25.23
2022-12-11T05:02:46.879Z,23.42
2022-12-11T05:03:50.346Z,26.00
2022-12-11T05:04:53.575Z,26.20
2022-12-11T05:05:55.335Z,22.48
2022-12-11T05:06:58.033Z,27.15
2022-12-11T05:07:59.825Z,26.52
2022-12-11T05:09:02.553Z,24.30
2022-12-11T05:10:05.388Z,28.35
2022-12-11T05:11:10.767Z,25.95
2022-12-11T05:12:12.496Z,26.88
2022-12-11T05:13:15.458Z,25.85
2022-12-11T05:14:17.306Z,22.75
2022-12-11T05:15:20.044Z,25.13
2022-12-11T05:16:21.879Z,24.60
2022-12-11T05:17:24.667Z,22.13
2022-12-11T05:18:26.602Z,24.83
2022-12-11T05:19:30.683Z,22.52
2022-12-11T05:20:32.656Z,25.27
2022-12-11T05:21:35.503Z,25.20
2022-12-11T05:22:37.851Z,23.17
2022-12-11T05:23:41.242Z,28.08
2022-12-11T05:24:43.166Z,22.70
2022-12-11T05:25:52.868Z,23.40
2022-12-11T05:26:54.619Z,21.92
2022-12-11T05:27:57.332Z,20.00
2022-12-11T05:28:59.114Z,21.63
2022-12-11T05:30:01.859Z,24.05
2022-12-11T05:31:06.490Z,23.10
2022-12-11T05:32:09.315Z,23.13
2022-12-11T05:33:11.077Z,21.55
2022-12-11T05:34:15.156Z,20.00
2022-12-11T05:35:18.341Z,21.65
2022-12-11T05:36:23.009Z,18.92
2022-12-11T05:37:24.759Z,22.13
2022-12-11T05:38:27.849Z,23.05
2022-12-11T05:39:30.899Z,19.80
2022-12-11T05:40:32.646Z,21.23
2022-12-11T05:41:35.376Z,21.08
2022-12-11T05:42:37.143Z,21.48
2022-12-11T05:43:39.876Z,22.02
2022-12-11T05:44:41.626Z,22.63
2022-12-11T05:45:44.376Z,20.73
2022-12-11T05:46:47.212Z,24.52
2022-12-11T05:47:49.038Z,23.63
2022-12-11T05:48:54.010Z,23.45
2022-12-11T05:49:55.830Z,25.10
2022-12-11T05:51:00.857Z,23.33
2022-12-11T05:52:02.652Z,26.10
2022-12-11T05:53:05.658Z,21.77
2022-12-11T05:54:07.529Z,23.50
2022-12-11T05:55:10.809Z,21.05
2022-12-11T05:56:14.554Z,22.40
2022-12-11T05:57:17.339Z,20.58
2022-12-11T05:58:19.134Z,20.88
2022-12-11T05:59:21.901Z,20.77
2022-12-11T06:00:23.704Z,21.17
2022-12-11T06:01:28.142Z,20.83
2022-12-11T06:02:30.142Z,23.67
2022-12-11T06:03:33.049Z,22.52
2022-12-11T06:04:34.765Z,22.95
2022-12-11T06:05:38.755Z,24.02
2022-12-11T06:06:43.959Z,22.55
2022-12-11T06:07:45.846Z,24.20
2022-12-11T06:08:50.818Z,21.83
2022-12-11T06:09:52.584Z,22.20
2022-12-11T06:10:55.329Z,25.35
2022-12-11T06:11:57.087Z,22.58
2022-12-11T06:12:59.839Z,22.13
2022-12-11T06:14:02.319Z,21.48
2022-12-11T06:15:05.644Z,22.35
2022-12-11T06:16:08.636Z,24.23
2022-12-11T06:17:11.464Z,25.33
2022-12-11T06:18:13.208Z,24.17
2022-12-11T06:19:17.450Z,24.58
2022-12-11T06:20:19.251Z,20.50
2022-12-11T06:21:24.014Z,23.48
2022-12-11T06:22:27.172Z,21.02
2022-12-11T06:23:29.894Z,22.17
2022-12-11T06:24:32.257Z,21.63
2022-12-11T06:25:35.379Z,22.75
2022-12-11T06:26:37.132Z,21.60
2022-12-11T06:27:39.904Z,26.60
2022-12-11T06:28:41.678Z,20.90
2022-12-11T06:29:44.459Z,20.30
2022-12-11T06:30:46.240Z,20.48
2022-12-11T06:31:49.046Z,18.23
2022-12-11T06:32:50.972Z,21.17
2022-12-11T06:33:54.230Z,18.70
2022-12-11T06:34:56.059Z,21.10
2022-12-11T06:36:03.017Z,20.60
2022-12-11T06:37:05.790Z,20.08
2022-12-11T06:38:08.983Z,18.50
2022-12-11T06:39:12.233Z,20.30
2022-12-11T06:40:14.092Z,21.70
2022-12-11T06:41:17.347Z,16.65
2022-12-11T06:42:19.145Z,20.65
2022-12-11T06:43:21.905Z,18.85
2022-12-11T06:44:24.845Z,20.17
2022-12-11T06:45:27.778Z,18.50
2022-12-11T06:46:29.625Z,17.83
2022-12-11T06:47:33.134Z,20.23
2022-12-11T06:48:35.020Z,16.92
2022-12-11T06:49:37.740Z,20.55
2022-12-11T06:50:39.523Z,22.42
2022-12-11T06:51:42.314Z,17.90
2022-12-11T06:52:44.050Z,19.52
2022-12-11T06:53:52.442Z,20.73
2022-12-11T06:54:54.663Z,17.63
2022-12-11T06:55:57.407Z,20.48
2022-12-11T06:56:59.217Z,22.77
2022-12-11T06:58:01.925Z,23.48
2022-12-11T06:59:07.354Z,22.77
2022-12-11T07:00:11.721Z,22.10
2022-12-11T07:01:19.251Z,19.35
2022-12-11T07:02:21.345Z,20.17
2022-12-11T07:03:24.149Z,19.77
2022-12-11T07:04:27.404Z,27.95
2022-12-11T07:05:30.141Z,23.00
2022-12-11T07:06:31.890Z,23.83
2022-12-11T07:07:34.963Z,22.17
2022-12-11T07:08:36.849Z,21.48
2022-12-11T07:09:41.704Z,22.10
2022-12-11T07:10:43.608Z,22.02
2022-12-11T07:11:46.410Z,23.45
2022-12-11T07:12:49.133Z,19.77
2022-12-11T07:13:52.199Z,20.92
2022-12-11T07:14:54.194Z,21.67
2022-12-11T07:15:58.972Z,20.52
2022-12-11T07:17:01.896Z,19.65
2022-12-11T07:18:04.157Z,16.73
2022-12-11T07:19:06.893Z,22.73
2022-12-11T07:20:10.201Z,21.52
2022-12-11T07:21:13.715Z,25.10
2022-12-11T07:22:15.621Z,22.73
2022-12-11T07:23:18.424Z,21.75
2022-12-11T07:24:20.542Z,21.50
2022-12-11T07:25:24.806Z,23.65
2022-12-11T07:26:28.235Z,24.48
2022-12-11T07:27:31.092Z,20.52
2022-12-11T07:28:33.030Z,25.63
2022-12-11T07:29:36.010Z,24.65
2022-12-11T07:30:38.303Z,23.50
2022-12-11T07:31:41.291Z,30.83
2022-12-11T07:32:43.153Z,27.70
2022-12-11T07:33:46.341Z,23.85
2022-12-11T07:34:51.744Z,25.77
2022-12-11T07:35:55.019Z,27.45
2022-12-11T07:36:56.930Z,29.20
2022-12-11T07:37:59.815Z,29.38
2022-12-11T07:39:02.065Z,33.38
2022-12-11T07:40:05.478Z,36.20
2022-12-11T07:41:11.134Z,28.50
2022-12-11T07:42:14.147Z,26.55
2022-12-11T07:43:17.272Z,25.80
2022-12-11T07:44:19.439Z,23.08
2022-12-11T07:45:22.455Z,25.08
2022-12-11T07:46:25.997Z,25.30
2022-12-11T07:47:28.711Z,30.40
2022-12-11T07:48:30.997Z,27.40
2022-12-11T07:49:33.812Z,28.25
2022-12-11T07:50:39.731Z,25.52
2022-12-11T07:51:42.831Z,24.20
2022-12-11T07:52:45.637Z,33.47
2022-12-11T07:53:49.277Z,23.05
2022-12-11T07:54:52.061Z,33.33
2022-12-11T07:55:54.776Z,39.10
2022-12-11T07:56:57.882Z,29.23
2022-12-11T07:58:00.691Z,26.30
2022-12-11T07:59:04.048Z,32.38
2022-12-11T08:00:08.407Z,27.02
2022-12-11T08:01:16.562Z,42.47
2022-12-11T08:02:19.773Z,32.35
2022-12-11T08:03:21.759Z,27.90
2022-12-11T08:04:24.535Z,29.23
2022-12-11T08:05:27.584Z,32.03
2022-12-11T08:06:30.833Z,32.70
2022-12-11T08:07:35.721Z,21.45
2022-12-11T08:08:37.767Z,28.13
2022-12-11T08:09:40.815Z,55.20
2022-12-11T08:10:44.244Z,46.75
2022-12-11T08:11:45.974Z,34.45
2022-12-11T08:12:50.081Z,30.05
2022-12-11T08:13:51.961Z,41.50
2022-12-11T08:14:54.718Z,49.08
2022-12-11T08:15:56.512Z,37.47
2022-12-11T08:17:00.230Z,27.98
2022-12-11T08:18:02.105Z,22.95
2022-12-11T08:19:04.834Z,27.60
2022-12-11T08:20:09.285Z,36.45
2022-12-11T08:21:12.509Z,26.35
2022-12-11T08:22:15.371Z,30.20
2022-12-11T08:23:17.113Z,25.00
2022-12-11T08:24:20.862Z,27.42
2022-12-11T08:25:22.709Z,36.63
2022-12-11T08:26:27.698Z,28.92
2022-12-11T08:27:29.665Z,39.75
2022-12-11T08:28:34.665Z,28.27
2022-12-11T08:29:37.253Z,31.13
2022-12-11T08:30:41.177Z,37.17
2022-12-11T08:31:43.335Z,27.33
2022-12-11T08:32:46.398Z,30.30
2022-12-11T08:33:48.727Z,43.25
2022-12-11T08:34:52.331Z,40.17
2022-12-11T08:35:54.310Z,40.42
2022-12-11T08:36:57.251Z,44.65
2022-12-11T08:37:59.566Z,27.10
2022-12-11T08:39:02.494Z,26.88
2022-12-11T08:40:05.496Z,59.05
2022-12-11T08:41:13.039Z,51.65
2022-12-11T08:42:15.418Z,32.25
2022-12-11T08:43:19.070Z,31.70
2022-12-11T08:44:25.055Z,28.05
2022-12-11T08:45:27.653Z,25.23
2022-12-11T08:46:32.012Z,25.27
2022-12-11T08:47:33.870Z,31.38
2022-12-11T08:48:38.240Z,30.63
2022-12-11T08:49:41.561Z,35.88
2022-12-11T08:50:44.730Z,28.67
2022-12-11T08:51:49.307Z,28.92
2022-12-11T08:52:51.560Z,29.58
2022-12-11T08:53:56.451Z,26.17
2022-12-11T08:54:58.752Z,28.48
2022-12-11T08:56:02.758Z,22.27
2022-12-11T08:57:06.124Z,23.63
2022-12-11T08:58:08.044Z,24.15
2022-12-11T08:59:11.960Z,26.05
2022-12-11T09:00:17.141Z,22.20
2022-12-11T09:01:21.677Z,22.55
2022-12-11T09:02:25.242Z,22.52
2022-12-11T09:03:27.188Z,23.48
2022-12-11T09:04:30.147Z,23.08
2022-12-11T09:05:31.944Z,24.00
2022-12-11T09:06:34.885Z,22.23
2022-12-11T09:07:37.735Z,23.95
2022-12-11T09:08:41.009Z,20.90
2022-12-11T09:09:43.756Z,20.95
2022-12-11T09:10:45.562Z,21.20
2022-12-11T09:11:49.615Z,21.88
2022-12-11T09:12:51.346Z,19.70
2022-12-11T09:13:54.939Z,18.83
2022-12-11T09:14:56.951Z,24.23
2022-12-11T09:16:01.325Z,19.20
2022-12-11T09:17:05.351Z,23.60
2022-12-11T09:18:08.233Z,20.20
2022-12-11T09:19:13.750Z,19.60
2022-12-11T09:20:16.504Z,19.00
2022-12-11T09:21:22.461Z,20.85
2022-12-11T09:22:25.410Z,20.73
2022-12-11T09:23:27.756Z,21.20
2022-12-11T09:24:30.880Z,19.50
2022-12-11T09:25:33.948Z,20.08
2022-12-11T09:26:36.039Z,20.60
2022-12-11T09:27:38.810Z,21.50
2022-12-11T09:28:45.962Z,22.60
2022-12-11T09:29:49.836Z,19.73
2022-12-11T09:30:51.870Z,23.30
2022-12-11T09:31:56.414Z,29.15
2022-12-11T09:32:58.415Z,38.90
2022-12-11T09:34:02.714Z,31.42
2022-12-11T09:35:06.490Z,20.73
2022-12-11T09:36:09.747Z,19.83
2022-12-11T09:37:12.866Z,36.40
2022-12-11T09:38:14.657Z,35.25
2022-12-11T09:39:18.868Z,31.48
2022-12-11T09:40:21.891Z,20.55
2022-12-11T09:41:40.502Z,25.35
2022-12-11T09:42:51.652Z,22.67
2022-12-11T09:44:01.726Z,23.30
2022-12-11T09:45:06.986Z,20.38
2022-12-11T09:46:12.020Z,20.77
2022-12-11T09:47:23.101Z,18.63
2022-12-11T09:48:27.273Z,19.45
2022-12-11T09:49:36.907Z,20.70
2022-12-11T09:50:40.920Z,18.50
2022-12-11T09:51:45.993Z,21.30
2022-12-11T09:52:57.253Z,18.83
2022-12-11T09:54:01.622Z,18.58
2022-12-11T09:55:13.044Z,20.88
2022-12-11T09:56:19.682Z,19.70
2022-12-11T09:57:33.642Z,18.90
2022-12-11T09:58:41.169Z,19.67
2022-12-11T10:00:02.691Z,20.63
2022-12-11T10:01:12.008Z,20.17
2022-12-11T10:02:26.970Z,21.40
2022-12-11T10:03:44.797Z,18.77
2022-12-11T10:04:52.579Z,17.05
2022-12-11T10:06:04.581Z,17.30
2022-12-11T10:07:13.234Z,17.27
2022-12-11T10:08:19.960Z,17.52
2022-12-11T10:09:27.822Z,18.20
2022-12-11T10:10:37.134Z,17.58
2022-12-11T10:12:00.183Z,16.77
2022-12-11T10:13:07.918Z,15.93
2022-12-11T10:14:15.415Z,16.15
2022-12-11T10:15:27.393Z,18.08
2022-12-11T10:16:38.161Z,15.35
2022-12-11T10:17:44.566Z,15.73
2022-12-11T10:18:47.754Z,18.52
2022-12-11T10:19:50.881Z,18.38
2022-12-11T10:20:54.346Z,16.08
2022-12-11T10:21:57.907Z,14.48
2022-12-11T10:23:00.946Z,15.50
2022-12-11T10:24:06.181Z,16.90
2022-12-11T10:25:17.618Z,15.13
2022-12-11T10:26:20.700Z,16.67
2022-12-11T10:27:26.596Z,16.90
2022-12-11T10:28:29.981Z,15.80
2022-12-11T10:29:31.761Z,15.45
2022-12-11T10:30:38.515Z,14.27
2022-12-11T10:31:46.717Z,15.10
2022-12-11T10:32:56.000Z,15.57
2022-12-11T10:34:01.856Z,14.30
2022-12-11T10:35:05.961Z,15.02
2022-12-11T10:36:09.523Z,13.70
2022-12-11T10:37:12.678Z,14.48
2022-12-11T10:38:16.779Z,14.45
2022-12-11T10:39:22.033Z,15.30
2022-12-11T10:40:24.753Z,16.95
2022-12-11T10:41:36.729Z,14.25
2022-12-11T10:42:44.165Z,14.95
2022-12-11T10:43:50.756Z,15.02
2022-12-11T10:44:57.472Z,14.68
2022-12-11T10:46:00.254Z,13.20
2022-12-11T10:47:04.452Z,13.93
2022-12-11T10:48:12.476Z,16.23
2022-12-11T10:49:24.520Z,14.20
2022-12-11T10:50:27.698Z,14.05
2022-12-11T10:51:36.095Z,13.10
2022-12-11T10:52:43.599Z,16.02
2022-12-11T10:53:51.167Z,12.98
2022-12-11T10:54:59.816Z,15.13
2022-12-11T10:56:03.398Z,13.15
2022-12-11T10:57:08.525Z,13.65
2022-12-11T10:58:18.718Z,14.88
2022-12-11T10:59:25.629Z,15.60
2022-12-11T11:00:34.616Z,14.55
2022-12-11T11:01:40.348Z,14.70
2022-12-11T11:02:45.612Z,14.60
2022-12-11T11:04:01.346Z,15.95
2022-12-11T11:05:12.889Z,40.70
2022-12-11T11:06:18.385Z,46.85
2022-12-11T11:07:23.815Z,22.75
2022-12-11T11:08:27.883Z,29.75
2022-12-11T11:09:32.972Z,15.35
2022-12-11T11:10:34.975Z,16.00
2022-12-11T11:11:39.399Z,38.83
2022-12-11T11:12:42.663Z,21.65
2022-12-11T11:13:45.823Z,17.75
2022-12-11T11:14:48.595Z,17.50
2022-12-11T11:15:50.946Z,22.02
2022-12-11T11:16:56.798Z,17.38
2022-12-11T11:18:15.602Z,25.17
2022-12-11T11:19:23.035Z,20.10
2022-12-11T11:20:26.232Z,15.90
2022-12-11T11:21:30.274Z,13.80
2022-12-11T11:22:33.413Z,15.55
2022-12-11T11:23:39.838Z,16.52
2022-12-11T11:24:47.650Z,14.18
2022-12-11T11:25:50.776Z,14.80
2022-12-11T11:27:12.851Z,15.30
2022-12-11T11:28:19.546Z,14.57
2022-12-11T11:29:28.033Z,14.25
2022-12-11T11:30:33.776Z,14.90
2022-12-11T11:31:37.202Z,15.40
2022-12-11T11:32:40.036Z,14.80
2022-12-11T11:33:50.483Z,14.55
2022-12-11T11:34:54.704Z,16.15
2022-12-11T11:35:58.328Z,14.98
2022-12-11T11:37:05.577Z,16.70
2022-12-11T11:38:17.151Z,18.00
2022-12-11T11:39:24.601Z,16.15
2022-12-11T11:40:30.371Z,18.02
2022-12-11T11:41:38.943Z,18.67
2022-12-11T11:42:46.834Z,19.92
2022-12-11T11:43:51.826Z,18.23
2022-12-11T11:45:02.120Z,17.42
2022-12-11T11:46:07.655Z,18.63
2022-12-11T11:47:13.862Z,18.13
2022-12-11T11:48:26.211Z,17.83
2022-12-11T11:49:37.523Z,16.52
2022-12-11T11:50:46.216Z,20.90
2022-12-11T11:51:51.839Z,18.35
2022-12-11T11:53:01.690Z,19.95
2022-12-11T11:54:10.614Z,18.23
2022-12-11T11:55:21.655Z,16.58
2022-12-11T11:56:28.086Z,18.02
2022-12-11T11:57:36.774Z,17.20
2022-12-11T11:58:43.070Z,18.95
2022-12-11T11:59:49.360Z,17.15
2022-12-11T12:00:53.998Z,17.00
2022-12-11T12:01:57.837Z,18.92
2022-12-11T12:03:02.653Z,17.52
2022-12-11T12:04:06.441Z,18.27
2022-12-11T12:05:12.555Z,19.25
2022-12-11T12:06:24.642Z,18.05
2022-12-11T12:07:34.001Z,19.15
2022-12-11T12:08:42.687Z,16.77
2022-12-11T12:09:51.980Z,17.02
2022-12-11T12:10:58.510Z,18.13
2022-12-11T12:12:18.169Z,18.30
2022-12-11T12:15:03.366Z,19.15
2022-12-11T12:16:36.274Z,18.25
2022-12-11T12:17:48.180Z,20.25
2022-12-11T12:19:04.744Z,21.60
2022-12-11T12:20:15.920Z,19.83
2022-12-11T12:21:26.643Z,19.77
2022-12-11T12:22:39.291Z,19.30
2022-12-11T12:24:00.381Z,19.25
2022-12-11T12:25:10.929Z,22.08
2022-12-11T12:26:20.217Z,22.23
2022-12-11T12:28:53.838Z,19.02
2022-12-11T12:30:05.229Z,20.38
2022-12-11T12:31:18.458Z,20.25
2022-12-11T12:32:25.942Z,22.42
2022-12-11T12:33:39.151Z,23.63
2022-12-11T12:35:03.120Z,22.92
2022-12-11T12:36:14.686Z,22.42
2022-12-11T12:37:26.080Z,23.60
2022-12-11T12:38:41.175Z,23.38
2022-12-11T12:39:49.156Z,21.08
2022-12-11T12:40:59.040Z,24.33
2022-12-11T12:42:09.041Z,21.67
2022-12-11T12:43:40.475Z,22.88
2022-12-11T12:44:50.213Z,22.75
2022-12-11T12:46:01.057Z,21.42
2022-12-11T12:47:06.430Z,26.00
2022-12-11T12:48:10.141Z,24.20
2022-12-11T12:49:16.841Z,23.17
2022-12-11T12:50:22.050Z,21.55
2022-12-11T12:51:24.941Z,22.95
2022-12-11T12:52:32.613Z,21.73
2022-12-11T12:53:38.162Z,22.38
2022-12-11T12:54:42.323Z,22.63
2022-12-11T12:55:44.804Z,24.25
2022-12-11T12:56:48.331Z,22.95
2022-12-11T12:57:52.829Z,24.40
2022-12-11T12:58:55.813Z,23.58
2022-12-11T12:59:57.686Z,22.63
2022-12-11T13:01:08.650Z,24.88
2022-12-11T13:02:14.611Z,23.75
2022-12-11T13:03:20.225Z,22.42
2022-12-11T13:04:56.845Z,22.17
2022-12-11T13:06:00.822Z,22.17
2022-12-11T13:07:12.945Z,24.70
2022-12-11T13:08:25.691Z,20.20
2022-12-11T13:09:28.466Z,21.35
2022-12-11T13:10:33.487Z,19.58
2022-12-11T13:11:36.437Z,18.63
2022-12-11T13:12:44.763Z,22.60
2022-12-11T13:13:54.939Z,19.25
2022-12-11T13:14:57.724Z,20.85
2022-12-11T13:16:26.366Z,22.27
2022-12-11T13:17:37.164Z,20.70
2022-12-11T13:18:40.838Z,17.70
2022-12-11T13:19:42.999Z,19.15
2022-12-11T13:20:51.052Z,22.80
2022-12-11T13:21:58.024Z,19.20
2022-12-11T13:23:18.719Z,21.33
2022-12-11T13:24:27.484Z,21.98
2022-12-11T13:25:31.571Z,22.25
2022-12-11T13:26:35.058Z,22.23
2022-12-11T13:27:38.786Z,21.33
2022-12-11T13:28:51.653Z,22.58
2022-12-11T13:30:06.407Z,21.40
2022-12-11T13:31:29.995Z,20.80
2022-12-11T13:32:33.661Z,19.88
2022-12-11T13:33:41.608Z,25.38
2022-12-11T13:34:48.542Z,21.73
2022-12-11T13:36:19.003Z,22.40
2022-12-11T13:37:28.497Z,20.70
2022-12-11T13:38:31.746Z,21.05
2022-12-11T13:39:36.260Z,22.05
2022-12-11T13:40:40.189Z,21.30
2022-12-11T13:41:46.079Z,21.92
2022-12-11T13:42:50.927Z,23.38
2022-12-11T13:43:53.811Z,22.33
2022-12-11T13:44:56.908Z,22.27
2022-12-11T13:46:02.073Z,21.60
2022-12-11T13:47:05.101Z,23.67
2022-12-11T13:48:23.048Z,21.98
2022-12-11T13:49:27.801Z,22.48
2022-12-11T13:50:33.066Z,24.45
2022-12-11T13:51:37.350Z,21.40
2022-12-11T13:52:40.563Z,21.88
2022-12-11T13:53:43.806Z,24.38
2022-12-11T13:54:51.871Z,23.58
2022-12-11T13:55:57.777Z,26.35
2022-12-11T13:57:03.181Z,22.17
2022-12-11T13:58:16.110Z,30.60
2022-12-11T13:59:27.058Z,23.02
2022-12-11T14:00:32.927Z,24.05
2022-12-11T14:01:35.761Z,22.90